sensor_id;sensor_type;location;lat;lon;timestamp;pressure;altitude;pressure_sealevel;temperature;humidity
67740;BME280;54536;50.090;14.420;2023-02-19T00:01:41;99447.59;;;12.64;57.40
67740;BME280;54536;50.090;14.420;2023-02-19T00:04:17;99439.19;;;12.51;57.84
67740;BME280;54536;50.090;14.420;2023-02-19T00:06:45;99451.09;;;12.55;58.22
67740;BME280;54536;50.090;14.420;2023-02-19T00:09:13;99446.06;;;12.61;58.31
67740;BME280;54536;50.090;14.420;2023-02-19T00:11:40;99450.16;;;12.56;58.35
67740;BME280;54536;50.090;14.420;2023-02-19T00:14:09;99452.63;;;12.57;58.79
67740;BME280;54536;50.090;14.420;2023-02-19T00:16:39;99455.19;;;12.49;59.37
67740;BME280;54536;50.090;14.420;2023-02-19T00:19:16;99460.53;;;12.57;59.75
67740;BME280;54536;50.090;14.420;2023-02-19T00:21:43;99447.03;;;12.43;59.68
67740;BME280;54536;50.090;14.420;2023-02-19T00:24:12;99444.69;;;12.39;59.92
67740;BME280;54536;50.090;14.420;2023-02-19T00:26:40;99450.41;;;12.62;60.25
67740;BME280;54536;50.090;14.420;2023-02-19T00:29:14;99451.09;;;12.55;60.26
67740;BME280;54536;50.090;14.420;2023-02-19T00:31:41;99447.16;;;12.41;61.18
67740;BME280;54536;50.090;14.420;2023-02-19T00:34:10;99443.13;;;12.47;60.84
67740;BME280;54536;50.090;14.420;2023-02-19T00:36:38;99447.66;;;12.54;61.14
67740;BME280;54536;50.090;14.420;2023-02-19T00:39:07;99440.47;;;12.47;60.92
67740;BME280;54536;50.090;14.420;2023-02-19T00:41:35;99440.06;;;12.41;61.53
67740;BME280;54536;50.090;14.420;2023-02-19T00:44:07;99439.78;;;12.45;61.32
67740;BME280;54536;50.090;14.420;2023-02-19T00:46:36;99440.06;;;12.41;61.31
67740;BME280;54536;50.090;14.420;2023-02-19T00:49:16;99445.75;;;12.47;61.38
67740;BME280;54536;50.090;14.420;2023-02-19T00:51:43;99438.84;;;12.36;61.90
67740;BME280;54536;50.090;14.420;2023-02-19T00:54:10;99444.81;;;12.38;61.83
67740;BME280;54536;50.090;14.420;2023-02-19T00:56:37;99429.88;;;12.29;62.06
67740;BME280;54536;50.090;14.420;2023-02-19T00:59:04;99429.34;;;12.25;62.31
67740;BME280;54536;50.090;14.420;2023-02-19T01:01:30;99425.63;;;12.18;61.88
67740;BME280;54536;50.090;14.420;2023-02-19T01:03:57;99416.69;;;12.29;61.61
67740;BME280;54536;50.090;14.420;2023-02-19T01:06:23;99430.81;;;12.10;60.80
67740;BME280;54536;50.090;14.420;2023-02-19T01:08:49;99425.28;;;12.31;60.70
67740;BME280;54536;50.090;14.420;2023-02-19T01:11:16;99436.22;;;12.36;60.59
67740;BME280;54536;50.090;14.420;2023-02-19T01:13:44;99428.88;;;12.39;59.97
67740;BME280;54536;50.090;14.420;2023-02-19T01:16:15;99432.13;;;12.24;59.53
67740;BME280;54536;50.090;14.420;2023-02-19T01:18:44;99434.56;;;12.35;59.52
67740;BME280;54536;50.090;14.420;2023-02-19T01:21:17;99423.88;;;12.36;59.74
67740;BME280;54536;50.090;14.420;2023-02-19T01:23:45;99416.03;;;12.27;59.44
67740;BME280;54536;50.090;14.420;2023-02-19T01:26:14;99407.53;;;12.33;59.19
67740;BME280;54536;50.090;14.420;2023-02-19T01:28:41;99411.56;;;12.27;59.12
67740;BME280;54536;50.090;14.420;2023-02-19T01:31:13;99405.25;;;12.38;59.24
67740;BME280;54536;50.090;14.420;2023-02-19T01:33:47;99400.16;;;12.36;58.83
67740;BME280;54536;50.090;14.420;2023-02-19T01:36:14;99381.88;;;12.25;59.14
67740;BME280;54536;50.090;14.420;2023-02-19T01:38:42;99380.19;;;12.34;59.03
67740;BME280;54536;50.090;14.420;2023-02-19T01:41:11;99376.03;;;12.31;58.94
67740;BME280;54536;50.090;14.420;2023-02-19T01:44:00;99371.81;;;12.38;59.29
67740;BME280;54536;50.090;14.420;2023-02-19T01:46:30;99363.66;;;12.32;58.66
67740;BME280;54536;50.090;14.420;2023-02-19T01:49:12;99370.50;;;12.25;59.75
67740;BME280;54536;50.090;14.420;2023-02-19T01:51:46;99365.69;;;12.20;59.56
67740;BME280;54536;50.090;14.420;2023-02-19T01:54:25;99365.47;;;12.31;58.69
67740;BME280;54536;50.090;14.420;2023-02-19T01:56:54;99365.94;;;12.27;59.39
67740;BME280;54536;50.090;14.420;2023-02-19T01:59:28;99359.56;;;12.19;59.03
67740;BME280;54536;50.090;14.420;2023-02-19T02:01:56;99352.06;;;12.25;59.60
67740;BME280;54536;50.090;14.420;2023-02-19T02:04:24;99347.78;;;12.24;59.25
67740;BME280;54536;50.090;14.420;2023-02-19T02:06:55;99341.66;;;12.23;58.99
67740;BME280;54536;50.090;14.420;2023-02-19T02:09:26;99339.03;;;12.23;58.84
67740;BME280;54536;50.090;14.420;2023-02-19T02:12:12;99327.78;;;12.21;59.50
67740;BME280;54536;50.090;14.420;2023-02-19T02:14:45;99340.63;;;12.34;59.12
67740;BME280;54536;50.090;14.420;2023-02-19T02:17:28;99330.97;;;12.25;58.98
67740;BME280;54536;50.090;14.420;2023-02-19T02:20:18;99324.88;;;12.24;59.20
67740;BME280;54536;50.090;14.420;2023-02-19T02:22:48;99325.22;;;12.29;59.04
67740;BME280;54536;50.090;14.420;2023-02-19T02:31:32;99300.38;;;12.32;59.17
67740;BME280;54536;50.090;14.420;2023-02-19T02:34:18;99293.16;;;12.34;59.25
67740;BME280;54536;50.090;14.420;2023-02-19T02:36:53;99287.19;;;12.32;59.38
67740;BME280;54536;50.090;14.420;2023-02-19T02:39:29;99271.22;;;12.15;59.81
67740;BME280;54536;50.090;14.420;2023-02-19T02:41:59;99257.28;;;12.05;59.68
67740;BME280;54536;50.090;14.420;2023-02-19T02:44:44;99253.88;;;12.13;59.81
67740;BME280;54536;50.090;14.420;2023-02-19T02:47:38;99259.31;;;12.29;59.21
67740;BME280;54536;50.090;14.420;2023-02-19T02:50:15;99252.63;;;12.35;59.21
67740;BME280;54536;50.090;14.420;2023-02-19T02:52:47;99254.03;;;12.29;58.92
67740;BME280;54536;50.090;14.420;2023-02-19T02:55:44;99260.19;;;12.30;59.70
67740;BME280;54536;50.090;14.420;2023-02-19T02:58:27;99262.13;;;12.28;59.57
67740;BME280;54536;50.090;14.420;2023-02-19T03:01:06;99252.56;;;12.27;59.14
67740;BME280;54536;50.090;14.420;2023-02-19T03:04:07;99247.50;;;12.33;59.94
67740;BME280;54536;50.090;14.420;2023-02-19T03:06:43;99245.78;;;12.24;59.41
67740;BME280;54536;50.090;14.420;2023-02-19T03:09:19;99234.94;;;12.27;59.78
67740;BME280;54536;50.090;14.420;2023-02-19T03:11:51;99237.56;;;12.27;59.93
67740;BME280;54536;50.090;14.420;2023-02-19T03:14:45;99211.50;;;12.24;59.74
67740;BME280;54536;50.090;14.420;2023-02-19T03:20:32;99199.09;;;12.16;60.07
67740;BME280;54536;50.090;14.420;2023-02-19T03:23:01;99197.63;;;12.22;59.89
67740;BME280;54536;50.090;14.420;2023-02-19T03:25:31;99201.88;;;12.15;60.32
67740;BME280;54536;50.090;14.420;2023-02-19T03:28:22;99206.22;;;12.24;59.77
67740;BME280;54536;50.090;14.420;2023-02-19T03:31:14;99202.78;;;12.24;59.44
67740;BME280;54536;50.090;14.420;2023-02-19T03:33:48;99203.59;;;12.24;59.25
67740;BME280;54536;50.090;14.420;2023-02-19T03:36:19;99197.50;;;12.24;59.83
67740;BME280;54536;50.090;14.420;2023-02-19T03:39:01;99183.72;;;12.30;58.98
67740;BME280;54536;50.090;14.420;2023-02-19T03:44:41;99181.28;;;12.36;58.81
67740;BME280;54536;50.090;14.420;2023-02-19T04:01:39;99200.34;;;12.30;59.21
67740;BME280;54536;50.090;14.420;2023-02-19T04:04:17;99203.28;;;12.27;58.55
67740;BME280;54536;50.090;14.420;2023-02-19T04:06:51;99213.31;;;12.24;59.32
67740;BME280;54536;50.090;14.420;2023-02-19T04:09:26;99207.53;;;12.20;59.25
67740;BME280;54536;50.090;14.420;2023-02-19T04:12:00;99193.06;;;12.24;58.53
67740;BME280;54536;50.090;14.420;2023-02-19T04:14:56;99192.22;;;12.24;59.12
67740;BME280;54536;50.090;14.420;2023-02-19T04:17:32;99188.53;;;12.34;58.50
67740;BME280;54536;50.090;14.420;2023-02-19T04:20:09;99180.31;;;12.37;58.68
67740;BME280;54536;50.090;14.420;2023-02-19T04:22:38;99183.16;;;12.44;57.74
67740;BME280;54536;50.090;14.420;2023-02-19T04:25:11;99184.75;;;12.37;58.40
67740;BME280;54536;50.090;14.420;2023-02-19T04:27:38;99175.94;;;12.46;57.65
67740;BME280;54536;50.090;14.420;2023-02-19T04:30:07;99175.34;;;12.34;58.50
67740;BME280;54536;50.090;14.420;2023-02-19T04:32:33;99176.06;;;12.45;58.01
67740;BME280;54536;50.090;14.420;2023-02-19T04:35:06;99174.50;;;12.34;58.21
67740;BME280;54536;50.090;14.420;2023-02-19T04:37:38;99175.34;;;12.34;58.00
67740;BME280;54536;50.090;14.420;2023-02-19T04:40:05;99178.50;;;12.38;57.44
67740;BME280;54536;50.090;14.420;2023-02-19T04:42:31;99174.41;;;12.44;57.65
67740;BME280;54536;50.090;14.420;2023-02-19T04:44:58;99177.88;;;12.44;57.63
67740;BME280;54536;50.090;14.420;2023-02-19T04:47:24;99168.69;;;12.48;57.38
67740;BME280;54536;50.090;14.420;2023-02-19T04:49:50;99157.31;;;12.48;57.47
67740;BME280;54536;50.090;14.420;2023-02-19T04:52:17;99163.88;;;12.44;57.71
67740;BME280;54536;50.090;14.420;2023-02-19T04:54:43;99166.94;;;12.57;57.23
67740;BME280;54536;50.090;14.420;2023-02-19T04:57:09;99159.16;;;12.55;57.31
67740;BME280;54536;50.090;14.420;2023-02-19T04:59:36;99160.63;;;12.50;57.13
67740;BME280;54536;50.090;14.420;2023-02-19T05:02:08;99152.09;;;12.56;57.15
67740;BME280;54536;50.090;14.420;2023-02-19T05:04:35;99163.69;;;12.63;57.12
67740;BME280;54536;50.090;14.420;2023-02-19T05:07:01;99155.28;;;12.68;57.13
67740;BME280;54536;50.090;14.420;2023-02-19T05:09:27;99144.53;;;12.61;56.54
67740;BME280;54536;50.090;14.420;2023-02-19T05:11:55;99137.59;;;12.60;57.32
67740;BME280;54536;50.090;14.420;2023-02-19T05:14:22;99134.91;;;12.52;57.37
67740;BME280;54536;50.090;14.420;2023-02-19T05:16:48;99133.63;;;12.56;57.42
67740;BME280;54536;50.090;14.420;2023-02-19T05:19:15;99150.41;;;12.55;57.04
67740;BME280;54536;50.090;14.420;2023-02-19T05:21:42;99156.78;;;12.44;57.30
67740;BME280;54536;50.090;14.420;2023-02-19T05:24:08;99150.31;;;12.38;57.51
67740;BME280;54536;50.090;14.420;2023-02-19T05:26:35;99149.56;;;12.46;57.85
67740;BME280;54536;50.090;14.420;2023-02-19T05:29:03;99148.78;;;12.54;57.17
67740;BME280;54536;50.090;14.420;2023-02-19T05:31:29;99154.16;;;12.44;57.53
67740;BME280;54536;50.090;14.420;2023-02-19T05:34:04;99154.19;;;12.52;57.62
67740;BME280;54536;50.090;14.420;2023-02-19T05:36:38;99156.41;;;12.39;57.42
67740;BME280;54536;50.090;14.420;2023-02-19T05:39:18;99154.44;;;12.41;57.87
67740;BME280;54536;50.090;14.420;2023-02-19T05:41:44;99153.38;;;12.52;57.89
67740;BME280;54536;50.090;14.420;2023-02-19T05:44:10;99153.53;;;12.50;57.28
67740;BME280;54536;50.090;14.420;2023-02-19T05:46:37;99150.59;;;12.53;57.88
67740;BME280;54536;50.090;14.420;2023-02-19T05:49:04;99139.00;;;12.46;57.12
67740;BME280;54536;50.090;14.420;2023-02-19T05:51:30;99139.84;;;12.47;57.88
67740;BME280;54536;50.090;14.420;2023-02-19T05:53:57;99132.94;;;12.54;57.64
67740;BME280;54536;50.090;14.420;2023-02-19T05:56:39;99136.41;;;12.54;57.73
67740;BME280;54536;50.090;14.420;2023-02-19T05:59:17;99146.84;;;12.64;57.51
67740;BME280;54536;50.090;14.420;2023-02-19T06:01:44;99143.34;;;12.55;57.76
67740;BME280;54536;50.090;14.420;2023-02-19T06:04:12;99131.63;;;12.50;57.64
67740;BME280;54536;50.090;14.420;2023-02-19T06:06:46;99142.59;;;12.71;57.08
67740;BME280;54536;50.090;14.420;2023-02-19T06:09:13;99140.88;;;12.54;57.68
67740;BME280;54536;50.090;14.420;2023-02-19T06:11:40;99139.25;;;12.61;57.25
67740;BME280;54536;50.090;14.420;2023-02-19T06:14:12;99133.47;;;12.57;57.70
67740;BME280;54536;50.090;14.420;2023-02-19T06:16:44;99135.22;;;12.49;57.61
67740;BME280;54536;50.090;14.420;2023-02-19T06:19:11;99143.19;;;12.57;57.07
67740;BME280;54536;50.090;14.420;2023-02-19T06:21:43;99146.75;;;12.48;58.03
67740;BME280;54536;50.090;14.420;2023-02-19T06:24:09;99136.47;;;12.62;57.38
67740;BME280;54536;50.090;14.420;2023-02-19T06:26:36;99145.34;;;12.61;57.20
67740;BME280;54536;50.090;14.420;2023-02-19T06:29:03;99152.31;;;12.62;56.85
67740;BME280;54536;50.090;14.420;2023-02-19T06:31:35;99149.50;;;12.64;56.83
67740;BME280;54536;50.090;14.420;2023-02-19T06:34:04;99156.06;;;12.60;56.31
67740;BME280;54536;50.090;14.420;2023-02-19T06:36:31;99145.97;;;12.55;56.77
67740;BME280;54536;50.090;14.420;2023-02-19T06:39:03;99145.53;;;12.60;57.01
67740;BME280;54536;50.090;14.420;2023-02-19T06:41:30;99136.31;;;12.64;56.77
67740;BME280;54536;50.090;14.420;2023-02-19T06:43:57;99136.81;;;12.68;55.94
67740;BME280;54536;50.090;14.420;2023-02-19T06:46:23;99146.94;;;12.72;56.49
67740;BME280;54536;50.090;14.420;2023-02-19T06:48:50;99141.75;;;12.62;56.20
67740;BME280;54536;50.090;14.420;2023-02-19T06:51:18;99139.34;;;12.77;56.08
67740;BME280;54536;50.090;14.420;2023-02-19T06:54:00;99138.53;;;12.77;55.90
67740;BME280;54536;50.090;14.420;2023-02-19T06:56:34;99147.25;;;12.77;55.92
67740;BME280;54536;50.090;14.420;2023-02-19T06:59:13;99143.63;;;12.78;55.46
67740;BME280;54536;50.090;14.420;2023-02-19T07:01:43;99140.03;;;12.79;55.87
67740;BME280;54536;50.090;14.420;2023-02-19T07:04:10;99149.97;;;12.85;56.36
67740;BME280;54536;50.090;14.420;2023-02-19T07:06:37;99144.13;;;12.74;55.53
67740;BME280;54536;50.090;14.420;2023-02-19T07:09:06;99146.44;;;12.77;55.36
67740;BME280;54536;50.090;14.420;2023-02-19T07:11:36;99144.50;;;12.79;55.65
67740;BME280;54536;50.090;14.420;2023-02-19T07:14:06;99145.63;;;12.76;55.59
67740;BME280;54536;50.090;14.420;2023-02-19T07:16:35;99155.03;;;12.79;55.17
67740;BME280;54536;50.090;14.420;2023-02-19T07:19:09;99163.41;;;12.74;55.28
67740;BME280;54536;50.090;14.420;2023-02-19T07:21:36;99170.34;;;12.75;55.72
67740;BME280;54536;50.090;14.420;2023-02-19T07:24:04;99181.88;;;12.74;55.53
67740;BME280;54536;50.090;14.420;2023-02-19T07:26:30;99187.63;;;12.70;55.04
67740;BME280;54536;50.090;14.420;2023-02-19T07:28:57;99186.94;;;12.68;55.23
67740;BME280;54536;50.090;14.420;2023-02-19T07:31:24;99183.88;;;12.72;55.34
67740;BME280;54536;50.090;14.420;2023-02-19T07:33:50;99189.13;;;12.72;55.36
67740;BME280;54536;50.090;14.420;2023-02-19T07:36:18;99196.50;;;12.69;55.46
67740;BME280;54536;50.090;14.420;2023-02-19T07:38:45;99201.66;;;12.70;54.91
67740;BME280;54536;50.090;14.420;2023-02-19T07:41:12;99203.56;;;12.60;55.07
67740;BME280;54536;50.090;14.420;2023-02-19T07:43:40;99219.63;;;12.75;55.38
67740;BME280;54536;50.090;14.420;2023-02-19T07:46:14;99219.03;;;12.81;54.46
67740;BME280;54536;50.090;14.420;2023-02-19T07:48:42;99221.00;;;12.79;54.99
67740;BME280;54536;50.090;14.420;2023-02-19T07:51:12;99221.00;;;12.79;54.65
67740;BME280;54536;50.090;14.420;2023-02-19T07:53:49;99220.44;;;12.93;54.73
67740;BME280;54536;50.090;14.420;2023-02-19T07:56:17;99242.31;;;12.85;55.13
67740;BME280;54536;50.090;14.420;2023-02-19T07:58:44;99239.78;;;13.02;54.38
67740;BME280;54536;50.090;14.420;2023-02-19T08:01:22;99239.22;;;12.90;55.51
67740;BME280;54536;50.090;14.420;2023-02-19T08:04:12;99257.00;;;12.88;56.65
67740;BME280;54536;50.090;14.420;2023-02-19T08:06:44;99249.94;;;12.71;58.30
67740;BME280;54536;50.090;14.420;2023-02-19T08:09:11;99268.66;;;12.59;59.90
67740;BME280;54536;50.090;14.420;2023-02-19T08:11:38;99280.56;;;12.46;61.79
67740;BME280;54536;50.090;14.420;2023-02-19T08:14:24;99295.03;;;12.41;61.07
67740;BME280;54536;50.090;14.420;2023-02-19T08:16:51;99296.31;;;12.37;62.91
67740;BME280;54536;50.090;14.420;2023-02-19T08:19:18;99288.47;;;12.46;62.89
67740;BME280;54536;50.090;14.420;2023-02-19T08:21:51;99292.16;;;12.17;64.01
67740;BME280;54536;50.090;14.420;2023-02-19T08:24:25;99293.53;;;12.21;65.33
67740;BME280;54536;50.090;14.420;2023-02-19T08:26:52;99300.19;;;11.98;65.72
67740;BME280;54536;50.090;14.420;2023-02-19T08:29:18;99295.28;;;12.03;65.23
67740;BME280;54536;50.090;14.420;2023-02-19T08:31:50;99299.50;;;11.95;66.50
67740;BME280;54536;50.090;14.420;2023-02-19T08:34:22;99295.94;;;11.87;66.37
67740;BME280;54536;50.090;14.420;2023-02-19T08:36:48;99296.34;;;11.92;66.62
67740;BME280;54536;50.090;14.420;2023-02-19T08:39:15;99297.16;;;11.92;65.06
67740;BME280;54536;50.090;14.420;2023-02-19T08:41:41;99290.25;;;11.91;65.63
67740;BME280;54536;50.090;14.420;2023-02-19T08:44:08;99286.09;;;11.89;66.58
67740;BME280;54536;50.090;14.420;2023-02-19T08:46:34;99289.72;;;12.06;65.69
67740;BME280;54536;50.090;14.420;2023-02-19T08:49:12;99292.66;;;12.03;65.10
67740;BME280;54536;50.090;14.420;2023-02-19T08:51:41;99285.56;;;12.03;64.69
67740;BME280;54536;50.090;14.420;2023-02-19T08:54:07;99281.53;;;12.09;64.26
67740;BME280;54536;50.090;14.420;2023-02-19T08:56:33;99279.88;;;12.08;64.63
67740;BME280;54536;50.090;14.420;2023-02-19T08:59:01;99280.63;;;12.00;64.87
67740;BME280;54536;50.090;14.420;2023-02-19T09:01:27;99274.09;;;12.22;63.97
67740;BME280;54536;50.090;14.420;2023-02-19T09:03:54;99280.94;;;12.15;64.64
67740;BME280;54536;50.090;14.420;2023-02-19T09:06:20;99287.66;;;12.27;62.67
67740;BME280;54536;50.090;14.420;2023-02-19T09:08:46;99296.69;;;12.25;63.16
67740;BME280;54536;50.090;14.420;2023-02-19T09:11:13;99291.88;;;12.38;62.92
67740;BME280;54536;50.090;14.420;2023-02-19T09:13:40;99306.28;;;12.44;61.99
67740;BME280;54536;50.090;14.420;2023-02-19T09:16:06;99301.66;;;12.46;62.36
67740;BME280;54536;50.090;14.420;2023-02-19T09:18:34;99314.84;;;12.46;61.86
67740;BME280;54536;50.090;14.420;2023-02-19T09:21:02;99318.19;;;12.30;62.33
67740;BME280;54536;50.090;14.420;2023-02-19T09:23:32;99327.56;;;12.32;62.35
67740;BME280;54536;50.090;14.420;2023-02-19T09:26:00;99326.56;;;12.43;61.99
67740;BME280;54536;50.090;14.420;2023-02-19T09:28:28;99339.28;;;12.48;61.24
67740;BME280;54536;50.090;14.420;2023-02-19T09:30:54;99335.94;;;12.46;61.73
67740;BME280;54536;50.090;14.420;2023-02-19T09:33:21;99333.88;;;12.49;60.17
67740;BME280;54536;50.090;14.420;2023-02-19T09:35:47;99335.22;;;12.53;60.13
67740;BME280;54536;50.090;14.420;2023-02-19T09:38:13;99336.94;;;12.45;60.14
67740;BME280;54536;50.090;14.420;2023-02-19T09:40:39;99342.22;;;12.45;59.87
67740;BME280;54536;50.090;14.420;2023-02-19T09:43:17;99352.84;;;12.53;59.55
67740;BME280;54536;50.090;14.420;2023-02-19T09:45:45;99359.25;;;12.50;58.45
67740;BME280;54536;50.090;14.420;2023-02-19T09:48:12;99356.75;;;12.49;58.04
67740;BME280;54536;50.090;14.420;2023-02-19T09:50:41;99357.97;;;12.54;58.62
67740;BME280;54536;50.090;14.420;2023-02-19T09:53:32;99347.88;;;12.50;57.79
67740;BME280;54536;50.090;14.420;2023-02-19T09:56:06;99362.72;;;12.51;57.60
67740;BME280;54536;50.090;14.420;2023-02-19T09:58:56;99358.13;;;12.53;57.36
67740;BME280;54536;50.090;14.420;2023-02-19T10:01:27;99361.66;;;12.61;56.70
67740;BME280;54536;50.090;14.420;2023-02-19T10:03:56;99369.44;;;12.63;57.09
67740;BME280;54536;50.090;14.420;2023-02-19T10:06:25;99376.13;;;12.57;57.86
67740;BME280;54536;50.090;14.420;2023-02-19T10:09:04;99380.28;;;12.60;57.58
67740;BME280;54536;50.090;14.420;2023-02-19T10:11:36;99386.16;;;12.54;58.92
67740;BME280;54536;50.090;14.420;2023-02-19T10:14:09;99382.63;;;12.63;59.17
67740;BME280;54536;50.090;14.420;2023-02-19T10:16:43;99384.16;;;12.65;59.34
67740;BME280;54536;50.090;14.420;2023-02-19T10:19:12;99384.38;;;12.72;58.09
67740;BME280;54536;50.090;14.420;2023-02-19T10:21:40;99391.75;;;12.86;58.15
67740;BME280;54536;50.090;14.420;2023-02-19T10:24:15;99396.22;;;12.86;57.66
67740;BME280;54536;50.090;14.420;2023-02-19T10:26:45;99398.81;;;12.68;56.83
67740;BME280;54536;50.090;14.420;2023-02-19T10:29:11;99399.81;;;12.67;57.27
67740;BME280;54536;50.090;14.420;2023-02-19T10:31:37;99410.75;;;12.90;56.85
67740;BME280;54536;50.090;14.420;2023-02-19T10:34:03;99419.13;;;12.85;57.60
67740;BME280;54536;50.090;14.420;2023-02-19T10:36:42;99425.97;;;12.78;56.76
67740;BME280;54536;50.090;14.420;2023-02-19T10:39:37;99426.13;;;12.95;57.02
67740;BME280;54536;50.090;14.420;2023-02-19T10:42:04;99431.97;;;12.98;55.71
67740;BME280;54536;50.090;14.420;2023-02-19T10:44:41;99440.25;;;13.03;55.90
67740;BME280;54536;50.090;14.420;2023-02-19T10:47:17;99448.41;;;12.92;55.72
67740;BME280;54536;50.090;14.420;2023-02-19T10:49:45;99454.72;;;13.17;56.54
67740;BME280;54536;50.090;14.420;2023-02-19T10:52:24;99462.66;;;12.99;56.03
67740;BME280;54536;50.090;14.420;2023-02-19T10:54:56;99473.03;;;13.01;55.99
67740;BME280;54536;50.090;14.420;2023-02-19T10:57:24;99472.38;;;12.99;55.58
67740;BME280;54536;50.090;14.420;2023-02-19T10:59:55;99472.97;;;12.93;57.00
67740;BME280;54536;50.090;14.420;2023-02-19T11:02:23;99474.78;;;12.92;57.69
67740;BME280;54536;50.090;14.420;2023-02-19T11:05:15;99487.38;;;12.98;57.89
67740;BME280;54536;50.090;14.420;2023-02-19T11:07:53;99493.03;;;12.85;58.37
67740;BME280;54536;50.090;14.420;2023-02-19T11:10:37;99494.09;;;12.93;59.08
67740;BME280;54536;50.090;14.420;2023-02-19T11:13:06;99514.97;;;12.86;59.27
67740;BME280;54536;50.090;14.420;2023-02-19T11:15:39;99501.75;;;12.86;58.65
67740;BME280;54536;50.090;14.420;2023-02-19T11:23:16;99521.66;;;12.80;59.16
67740;BME280;54536;50.090;14.420;2023-02-19T11:25:45;99531.34;;;12.89;58.25
67740;BME280;54536;50.090;14.420;2023-02-19T11:28:31;99533.16;;;12.89;58.58
67740;BME280;54536;50.090;14.420;2023-02-19T11:33:55;99544.34;;;12.73;58.15
67740;BME280;54536;50.090;14.420;2023-02-19T11:38:54;99549.78;;;12.62;58.13
67740;BME280;54536;50.090;14.420;2023-02-19T11:42:01;99550.13;;;12.49;58.44
67740;BME280;54536;50.090;14.420;2023-02-19T11:58:37;99581.97;;;12.28;59.75
67740;BME280;54536;50.090;14.420;2023-02-19T12:01:26;99591.16;;;12.14;58.96
67740;BME280;54536;50.090;14.420;2023-02-19T12:29:10;99636.81;;;11.95;54.67
67740;BME280;54536;50.090;14.420;2023-02-19T12:41:14;99664.00;;;11.96;52.54
67740;BME280;54536;50.090;14.420;2023-02-19T12:43:53;99668.59;;;11.84;53.47
67740;BME280;54536;50.090;14.420;2023-02-19T12:46:37;99666.63;;;11.86;53.60
67740;BME280;54536;50.090;14.420;2023-02-19T12:49:38;99673.56;;;11.87;52.76
67740;BME280;54536;50.090;14.420;2023-02-19T12:52:17;99674.19;;;11.70;53.25
67740;BME280;54536;50.090;14.420;2023-02-19T12:54:49;99676.03;;;11.79;52.85
67740;BME280;54536;50.090;14.420;2023-02-19T12:57:37;99682.31;;;11.88;52.85
67740;BME280;54536;50.090;14.420;2023-02-19T13:08:55;99693.78;;;11.87;53.79
67740;BME280;54536;50.090;14.420;2023-02-19T13:11:34;99694.94;;;11.84;50.73
67740;BME280;54536;50.090;14.420;2023-02-19T13:14:19;99698.06;;;11.68;50.64
67740;BME280;54536;50.090;14.420;2023-02-19T13:16:57;99701.66;;;11.67;48.90
67740;BME280;54536;50.090;14.420;2023-02-19T13:19:24;99696.22;;;11.59;49.66
67740;BME280;54536;50.090;14.420;2023-02-19T13:25:06;99716.84;;;11.44;50.41
67740;BME280;54536;50.090;14.420;2023-02-19T13:30:52;99726.66;;;11.33;50.27
67740;BME280;54536;50.090;14.420;2023-02-19T13:33:36;99735.34;;;11.23;49.06
67740;BME280;54536;50.090;14.420;2023-02-19T13:36:22;99738.44;;;11.38;50.07
67740;BME280;54536;50.090;14.420;2023-02-19T13:38:52;99752.88;;;11.44;49.15
67740;BME280;54536;50.090;14.420;2023-02-19T13:41:39;99741.13;;;11.48;49.68
67740;BME280;54536;50.090;14.420;2023-02-19T13:44:17;99750.59;;;11.30;49.60
67740;BME280;54536;50.090;14.420;2023-02-19T13:46:47;99757.22;;;11.24;49.75
67740;BME280;54536;50.090;14.420;2023-02-19T13:49:39;99756.16;;;11.36;50.04
67740;BME280;54536;50.090;14.420;2023-02-19T14:01:08;99755.72;;;11.31;49.76
67740;BME280;54536;50.090;14.420;2023-02-19T14:04:06;99758.25;;;11.33;49.06
67740;BME280;54536;50.090;14.420;2023-02-19T14:14:53;99767.91;;;11.22;50.00
67740;BME280;54536;50.090;14.420;2023-02-19T14:17:41;99780.03;;;11.14;50.31
67740;BME280;54536;50.090;14.420;2023-02-19T14:33:21;99818.22;;;11.08;50.26
67740;BME280;54536;50.090;14.420;2023-02-19T14:35:53;99819.19;;;11.07;50.41
67740;BME280;54536;50.090;14.420;2023-02-19T14:38:32;99817.22;;;10.99;50.08
67740;BME280;54536;50.090;14.420;2023-02-19T14:41:02;99810.78;;;11.13;51.34
67740;BME280;54536;50.090;14.420;2023-02-19T14:43:30;99821.16;;;11.15;51.00
67740;BME280;54536;50.090;14.420;2023-02-19T14:46:03;99812.00;;;11.09;50.36
67740;BME280;54536;50.090;14.420;2023-02-19T14:48:37;99818.94;;;11.10;49.65
67740;BME280;54536;50.090;14.420;2023-02-19T14:51:21;99820.47;;;11.13;50.14
67740;BME280;54536;50.090;14.420;2023-02-19T14:53:51;99823.13;;;11.13;50.30
67740;BME280;54536;50.090;14.420;2023-02-19T14:56:33;99824.78;;;11.14;50.22
67740;BME280;54536;50.090;14.420;2023-02-19T15:01:45;99830.75;;;11.16;50.22
67740;BME280;54536;50.090;14.420;2023-02-19T15:04:22;99835.28;;;11.14;50.08
67740;BME280;54536;50.090;14.420;2023-02-19T15:06:50;99840.72;;;11.12;49.95
67740;BME280;54536;50.090;14.420;2023-02-19T15:09:20;99845.63;;;11.27;49.14
67740;BME280;54536;50.090;14.420;2023-02-19T15:11:47;99848.19;;;11.17;49.44
67740;BME280;54536;50.090;14.420;2023-02-19T15:14:25;99856.09;;;11.17;49.92
67740;BME280;54536;50.090;14.420;2023-02-19T15:17:02;99852.91;;;11.13;49.76
67740;BME280;54536;50.090;14.420;2023-02-19T15:19:33;99861.88;;;11.11;49.01
67740;BME280;54536;50.090;14.420;2023-02-19T15:22:01;99865.00;;;11.05;50.11
67740;BME280;54536;50.090;14.420;2023-02-19T15:24:28;99870.16;;;11.06;49.78
67740;BME280;54536;50.090;14.420;2023-02-19T15:26:55;99877.31;;;11.15;49.55
67740;BME280;54536;50.090;14.420;2023-02-19T15:29:25;99895.16;;;11.12;50.17
67740;BME280;54536;50.090;14.420;2023-02-19T15:31:58;99898.72;;;11.11;50.14